Time;durP1;ratioP1;P1;durP2;ratioP2;P2;SDS_P1;SDS_P2;PMS_P1;PMS_P2;Temp;Humidity;BMP_temperature;BMP_pressure;BME280_temperature;BME280_humidity;BME280_pressure;Samples;Min_cycle;Max_cycle;Signal;HPM_P1;HPM_P2
2021/08/18 00:01:13;;;;;;;20.98;11.70;;;;;;;;;;5110435;28;20512;-72
2021/08/18 00:03:40;;;;;;;17.73;13.13;;;;;;;;;;5105734;28;20073;-72
2021/08/18 00:06:06;;;;;;;16.70;12.15;;;;;;;;;;5088703;28;20049;-72
2021/08/18 00:08:32;;;;;;;20.63;13.30;;;;;;;;;;5109615;28;20489;-72
2021/08/18 00:10:58;;;;;;;19.45;12.68;;;;;;;;;;5107877;28;20030;-73
2021/08/18 00:13:25;;;;;;;18.88;12.98;;;;;;;;;;5104404;28;20027;-72
2021/08/18 00:15:51;;;;;;;18.38;12.38;;;;;;;;;;5104871;28;20040;-71
2021/08/18 00:18:18;;;;;;;26.70;14.73;;;;;;;;;;5086663;28;20027;-72
2021/08/18 00:20:44;;;;;;;16.88;12.70;;;;;;;;;;5107376;28;20020;-72
2021/08/18 00:23:10;;;;;;;18.10;13.07;;;;;;;;;;5105765;28;20024;-72
2021/08/18 00:25:36;;;;;;;22.73;13.75;;;;;;;;;;5107164;28;20073;-72
2021/08/18 00:28:02;;;;;;;23.40;14.27;;;;;;;;;;5107003;28;20047;-72
2021/08/18 00:30:29;;;;;;;23.00;13.48;;;;;;;;;;5105911;28;20038;-73
2021/08/18 00:32:55;;;;;;;22.95;13.50;;;;;;;;;;5105673;28;20019;-72
2021/08/18 00:35:22;;;;;;;21.92;14.02;;;;;;;;;;5105677;28;20048;-73
2021/08/18 00:37:48;;;;;;;25.35;13.98;;;;;;;;;;5106902;28;20064;-72
2021/08/18 00:40:14;;;;;;;21.65;14.88;;;;;;;;;;5086829;28;20043;-72
2021/08/18 00:42:41;;;;;;;23.00;14.02;;;;;;;;;;5105437;28;20027;-72
2021/08/18 00:45:07;;;;;;;24.33;14.63;;;;;;;;;;5088799;28;20020;-72
2021/08/18 00:47:43;;;;;;;20.55;13.60;;;;;;;;;;5106695;28;20141;-72
2021/08/18 00:50:11;;;;;;;22.70;14.07;;;;;;;;;;5108576;28;20027;-72
2021/08/18 00:52:37;;;;;;;23.73;16.30;;;;;;;;;;5108728;28;20498;-72
2021/08/18 00:55:03;;;;;;;24.20;15.65;;;;;;;;;;5110863;27;20510;-72
2021/08/18 00:57:29;;;;;;;25.95;15.75;;;;;;;;;;5110999;28;20201;-73
2021/08/18 00:59:55;;;;;;;26.67;15.40;;;;;;;;;;5092566;28;20440;-72
2021/08/18 01:02:21;;;;;;;24.27;14.60;;;;;;;;;;5091225;28;20032;-72
2021/08/18 01:04:48;;;;;;;24.98;15.85;;;;;;;;;;5113519;28;20020;-72
2021/08/18 01:07:14;;;;;;;28.80;15.73;;;;;;;;;;5111296;28;20515;-73
2021/08/18 01:09:40;;;;;;;31.70;14.52;;;;;;;;;;5110576;28;20061;-72
2021/08/18 01:12:07;;;;;;;29.55;14.80;;;;;;;;;;5110025;28;20051;-73
2021/08/18 01:14:33;;;;;;;23.52;14.02;;;;;;;;;;5110510;28;20024;-72
2021/08/18 01:16:59;;;;;;;21.95;14.02;;;;;;;;;;5092221;28;20024;-72
2021/08/18 01:19:25;;;;;;;24.35;14.48;;;;;;;;;;5088143;28;20069;-73
2021/08/18 01:21:51;;;;;;;19.40;13.00;;;;;;;;;;5111561;28;20035;-73
2021/08/18 01:24:18;;;;;;;20.63;12.85;;;;;;;;;;5094287;28;20816;-73
2021/08/18 01:26:45;;;;;;;19.23;12.15;;;;;;;;;;5112466;28;20054;-73
2021/08/18 01:29:11;;;;;;;20.38;12.52;;;;;;;;;;5112963;28;20177;-73
2021/08/18 01:31:37;;;;;;;28.25;12.57;;;;;;;;;;5106887;28;20055;-73
2021/08/18 01:34:05;;;;;;;19.67;13.02;;;;;;;;;;5112771;28;20027;-73
2021/08/18 01:36:32;;;;;;;23.70;12.98;;;;;;;;;;5111833;28;20044;-73
2021/08/18 01:39:05;;;;;;;21.55;12.23;;;;;;;;;;5111094;28;20050;-72
2021/08/18 01:41:31;;;;;;;25.30;13.35;;;;;;;;;;5110010;28;20016;-74
2021/08/18 01:43:58;;;;;;;22.52;13.40;;;;;;;;;;5110871;28;20024;-73
2021/08/18 01:46:24;;;;;;;27.02;12.77;;;;;;;;;;5111121;28;20015;-73
2021/08/18 01:48:50;;;;;;;31.23;14.90;;;;;;;;;;5112112;28;20027;-74
2021/08/18 01:51:16;;;;;;;23.73;14.18;;;;;;;;;;5110908;28;20059;-74
2021/08/18 01:53:44;;;;;;;26.10;14.43;;;;;;;;;;5111633;28;20016;-74
2021/08/18 01:56:12;;;;;;;25.05;14.75;;;;;;;;;;5089140;28;20169;-74
2021/08/18 01:58:38;;;;;;;26.63;15.38;;;;;;;;;;5112726;28;20057;-75
2021/08/18 02:01:05;;;;;;;23.60;14.63;;;;;;;;;;5092584;28;20053;-74
2021/08/18 02:03:32;;;;;;;22.90;14.10;;;;;;;;;;5110273;28;20026;-74
2021/08/18 02:05:58;;;;;;;24.90;13.00;;;;;;;;;;5111881;28;20047;-73
2021/08/18 02:08:24;;;;;;;20.63;14.43;;;;;;;;;;5112585;27;20020;-75
2021/08/18 02:10:50;;;;;;;22.17;15.30;;;;;;;;;;5108221;28;20042;-75
2021/08/18 02:13:16;;;;;;;29.33;15.90;;;;;;;;;;5110703;28;20072;-74
2021/08/18 02:15:43;;;;;;;25.80;15.18;;;;;;;;;;5111557;28;20034;-74
2021/08/18 02:18:09;;;;;;;26.92;14.93;;;;;;;;;;5112620;28;20040;-73
2021/08/18 02:20:36;;;;;;;28.08;15.30;;;;;;;;;;5092623;28;20042;-74
2021/08/18 02:23:03;;;;;;;24.23;15.15;;;;;;;;;;5090243;28;20072;-74
2021/08/18 02:25:29;;;;;;;26.90;15.13;;;;;;;;;;5111193;28;20505;-74
2021/08/18 02:27:55;;;;;;;27.20;15.93;;;;;;;;;;5111292;28;20448;-74
2021/08/18 02:30:23;;;;;;;27.13;17.20;;;;;;;;;;5110564;28;20098;-74
2021/08/18 02:32:49;;;;;;;32.75;17.95;;;;;;;;;;5109726;28;20028;-74
2021/08/18 02:35:15;;;;;;;28.83;17.80;;;;;;;;;;5111359;28;20066;-74
2021/08/18 02:37:42;;;;;;;26.52;16.40;;;;;;;;;;5110777;28;20490;-75
2021/08/18 02:40:09;;;;;;;34.28;17.58;;;;;;;;;;5110736;28;20572;-75
2021/08/18 02:42:35;;;;;;;32.80;16.63;;;;;;;;;;5109509;28;20043;-75
2021/08/18 02:45:01;;;;;;;29.25;17.23;;;;;;;;;;5109747;28;20465;-74
2021/08/18 02:47:27;;;;;;;28.33;17.25;;;;;;;;;;5111818;28;20493;-74
2021/08/18 02:49:54;;;;;;;27.20;14.23;;;;;;;;;;5109645;28;20509;-74
2021/08/18 02:52:20;;;;;;;26.90;15.45;;;;;;;;;;5109643;28;20063;-75
2021/08/18 02:54:46;;;;;;;27.38;16.38;;;;;;;;;;5110880;28;20066;-75
2021/08/18 02:57:12;;;;;;;25.58;14.85;;;;;;;;;;5111159;28;20599;-76
2021/08/18 02:59:38;;;;;;;27.08;15.40;;;;;;;;;;5110504;28;20019;-75
2021/08/18 03:02:04;;;;;;;23.73;14.95;;;;;;;;;;5109661;28;20024;-75
2021/08/18 03:04:30;;;;;;;26.65;15.25;;;;;;;;;;5091267;28;20034;-75
2021/08/18 03:06:57;;;;;;;25.30;13.93;;;;;;;;;;5110366;28;20008;-75
2021/08/18 03:09:23;;;;;;;22.60;14.55;;;;;;;;;;5092765;28;20032;-75
2021/08/18 03:11:50;;;;;;;25.83;14.30;;;;;;;;;;5108648;28;20451;-75
2021/08/18 03:14:16;;;;;;;31.13;15.85;;;;;;;;;;5109663;28;20519;-76
2021/08/18 03:16:42;;;;;;;29.90;15.43;;;;;;;;;;5110729;28;20031;-74
2021/08/18 03:19:08;;;;;;;23.95;15.05;;;;;;;;;;5110059;28;20038;-74
2021/08/18 03:21:34;;;;;;;24.98;14.82;;;;;;;;;;5110034;28;20027;-76
2021/08/18 03:24:00;;;;;;;26.02;15.52;;;;;;;;;;5110237;28;20023;-74
2021/08/18 03:26:26;;;;;;;24.45;14.90;;;;;;;;;;5109919;28;20063;-74
2021/08/18 03:28:52;;;;;;;27.05;14.82;;;;;;;;;;5090095;28;20070;-74
2021/08/18 03:31:19;;;;;;;22.55;14.20;;;;;;;;;;5109927;28;20035;-74
2021/08/18 03:33:45;;;;;;;24.20;14.23;;;;;;;;;;5108977;28;20072;-74
2021/08/18 03:36:11;;;;;;;25.75;13.80;;;;;;;;;;5107989;28;20054;-74
2021/08/18 03:38:37;;;;;;;25.08;14.07;;;;;;;;;;5110381;28;20020;-74
2021/08/18 03:41:03;;;;;;;23.20;13.90;;;;;;;;;;5091559;28;20024;-74
2021/08/18 03:43:29;;;;;;;24.50;13.82;;;;;;;;;;5107032;28;20020;-75
2021/08/18 03:45:55;;;;;;;23.05;13.88;;;;;;;;;;5090518;28;20032;-75
2021/08/18 03:48:21;;;;;;;26.83;15.23;;;;;;;;;;5109601;28;20520;-74
2021/08/18 03:50:47;;;;;;;26.05;13.55;;;;;;;;;;5108980;28;20031;-75
2021/08/18 03:53:13;;;;;;;19.98;14.35;;;;;;;;;;5108167;28;20110;-74
2021/08/18 03:55:39;;;;;;;26.00;13.65;;;;;;;;;;5109105;28;20055;-74
2021/08/18 03:58:05;;;;;;;25.92;13.60;;;;;;;;;;5090351;28;20445;-74
2021/08/18 04:00:31;;;;;;;24.13;13.77;;;;;;;;;;5107999;28;20378;-75
2021/08/18 04:02:57;;;;;;;25.73;13.38;;;;;;;;;;5107573;28;20023;-75
2021/08/18 04:05:23;;;;;;;22.77;13.60;;;;;;;;;;5110340;28;20024;-74
2021/08/18 04:07:49;;;;;;;24.42;14.23;;;;;;;;;;5108520;28;20027;-75
2021/08/18 04:10:15;;;;;;;19.05;12.93;;;;;;;;;;5110510;28;20030;-74
2021/08/18 04:12:49;;;;;;;25.27;14.35;;;;;;;;;;5089626;28;20024;-74
2021/08/18 04:15:15;;;;;;;24.30;13.82;;;;;;;;;;5110041;28;20043;-74
2021/08/18 04:17:41;;;;;;;23.52;14.68;;;;;;;;;;5090518;28;20084;-74
2021/08/18 04:20:07;;;;;;;23.38;14.10;;;;;;;;;;5108597;28;20049;-75
2021/08/18 04:22:33;;;;;;;21.77;14.07;;;;;;;;;;5108073;28;20552;-75
2021/08/18 04:24:59;;;;;;;25.60;14.98;;;;;;;;;;5109690;28;20024;-75
2021/08/18 04:27:25;;;;;;;21.63;13.57;;;;;;;;;;5108628;28;20518;-75
2021/08/18 04:29:51;;;;;;;21.58;12.98;;;;;;;;;;5109705;28;20400;-75
2021/08/18 04:32:17;;;;;;;21.95;13.68;;;;;;;;;;5107254;28;20046;-75
2021/08/18 04:34:43;;;;;;;21.88;13.68;;;;;;;;;;5089890;28;20035;-75
2021/08/18 04:37:10;;;;;;;24.90;14.40;;;;;;;;;;5106399;28;20023;-74
2021/08/18 04:39:36;;;;;;;22.25;12.88;;;;;;;;;;5086796;28;20601;-74
2021/08/18 04:42:02;;;;;;;28.27;15.10;;;;;;;;;;5088819;28;20024;-74
2021/08/18 04:44:28;;;;;;;25.17;14.35;;;;;;;;;;5109260;28;20032;-74
2021/08/18 04:46:54;;;;;;;23.75;13.65;;;;;;;;;;5109354;28;20088;-75
2021/08/18 04:49:20;;;;;;;19.80;13.82;;;;;;;;;;5110035;28;20024;-74
2021/08/18 04:51:46;;;;;;;20.40;13.63;;;;;;;;;;5107624;28;20100;-74
2021/08/18 04:54:12;;;;;;;24.15;14.60;;;;;;;;;;5109330;28;20028;-74
2021/08/18 04:56:38;;;;;;;27.42;16.52;;;;;;;;;;5108481;28;20043;-74
2021/08/18 04:59:04;;;;;;;25.92;15.23;;;;;;;;;;5109510;28;20046;-75
2021/08/18 05:01:31;;;;;;;28.35;14.88;;;;;;;;;;5108319;28;20065;-74
2021/08/18 05:03:57;;;;;;;27.67;15.68;;;;;;;;;;5108498;28;20030;-74
2021/08/18 05:06:23;;;;;;;26.27;15.40;;;;;;;;;;5106010;28;20595;-74
2021/08/18 05:08:49;;;;;;;26.73;15.70;;;;;;;;;;5108224;28;20508;-73
2021/08/18 05:11:15;;;;;;;28.08;14.85;;;;;;;;;;5108017;28;20520;-74
2021/08/18 05:13:41;;;;;;;33.13;16.15;;;;;;;;;;5107989;28;20497;-72
2021/08/18 05:16:07;;;;;;;23.27;13.48;;;;;;;;;;5089330;28;20093;-71
2021/08/18 05:18:33;;;;;;;24.70;14.93;;;;;;;;;;5086807;28;20413;-74
2021/08/18 05:21:01;;;;;;;22.10;13.45;;;;;;;;;;5107919;28;20034;-71
2021/08/18 05:23:28;;;;;;;20.65;14.15;;;;;;;;;;5105115;28;20039;-72
2021/08/18 05:25:54;;;;;;;24.30;15.15;;;;;;;;;;5108253;28;20007;-73
2021/08/18 05:28:20;;;;;;;23.15;12.98;;;;;;;;;;5107820;28;20039;-73
2021/08/18 05:30:46;;;;;;;25.23;13.20;;;;;;;;;;5088542;28;20039;-73
2021/08/18 05:33:12;;;;;;;22.92;14.55;;;;;;;;;;5103156;28;20083;-73
2021/08/18 05:35:38;;;;;;;26.23;13.73;;;;;;;;;;5106031;28;20130;-73
2021/08/18 05:38:04;;;;;;;23.98;13.07;;;;;;;;;;5108115;28;20129;-73
2021/08/18 05:40:30;;;;;;;21.67;13.90;;;;;;;;;;5111005;28;20461;-73
2021/08/18 05:42:56;;;;;;;24.35;13.55;;;;;;;;;;5105853;28;20122;-73
2021/08/18 05:45:22;;;;;;;18.95;13.05;;;;;;;;;;5111419;28;20066;-74
2021/08/18 05:47:48;;;;;;;23.38;12.95;;;;;;;;;;5109969;28;20059;-73
2021/08/18 05:50:14;;;;;;;20.55;11.93;;;;;;;;;;5107047;28;20034;-73
2021/08/18 05:52:40;;;;;;;22.90;12.55;;;;;;;;;;5109346;28;20027;-74
2021/08/18 05:55:07;;;;;;;22.20;12.68;;;;;;;;;;5089606;28;20024;-72
2021/08/18 05:57:34;;;;;;;20.33;13.60;;;;;;;;;;5113623;28;20024;-73
2021/08/18 06:00:00;;;;;;;18.45;11.98;;;;;;;;;;5113899;28;20024;-74
2021/08/18 06:02:26;;;;;;;18.33;12.73;;;;;;;;;;5111499;28;20050;-73
2021/08/18 06:04:52;;;;;;;19.48;11.70;;;;;;;;;;5103596;28;20505;-73
2021/08/18 06:07:18;;;;;;;21.00;12.27;;;;;;;;;;5093455;28;20474;-74
2021/08/18 06:09:44;;;;;;;22.25;12.18;;;;;;;;;;5093410;28;20027;-73
2021/08/18 06:12:10;;;;;;;23.88;12.60;;;;;;;;;;5090544;28;20032;-73
2021/08/18 06:14:37;;;;;;;20.48;12.10;;;;;;;;;;5095443;28;20024;-73
2021/08/18 06:17:03;;;;;;;17.67;10.32;;;;;;;;;;5113917;28;20106;-73
2021/08/18 06:19:29;;;;;;;17.83;11.82;;;;;;;;;;5094906;28;20417;-73
2021/08/18 06:21:55;;;;;;;21.95;12.43;;;;;;;;;;5110938;28;20256;-73
2021/08/18 06:24:40;;;;;;;19.48;12.35;;;;;;;;;;5113256;28;20071;-73
2021/08/18 06:27:06;;;;;;;16.73;11.45;;;;;;;;;;5113553;28;20047;-73
2021/08/18 06:29:34;;;;;;;20.90;11.80;;;;;;;;;;5102784;28;20489;-72
2021/08/18 06:32:00;;;;;;;16.02;11.35;;;;;;;;;;5107446;28;20027;-71
2021/08/18 06:34:26;;;;;;;23.38;12.20;;;;;;;;;;5112802;28;20032;-72
2021/08/18 06:36:52;;;;;;;18.15;11.93;;;;;;;;;;5101267;28;20032;-72
2021/08/18 06:39:18;;;;;;;17.67;11.18;;;;;;;;;;5092797;28;20111;-72
2021/08/18 06:41:45;;;;;;;23.60;11.88;;;;;;;;;;5088744;28;20595;-73
2021/08/18 06:44:11;;;;;;;17.88;11.52;;;;;;;;;;5090943;28;20020;-73
2021/08/18 06:46:37;;;;;;;20.65;10.95;;;;;;;;;;5073374;28;20504;-73
2021/08/18 06:49:03;;;;;;;18.83;10.95;;;;;;;;;;5105914;28;20016;-73
2021/08/18 06:51:29;;;;;;;17.63;10.07;;;;;;;;;;5110956;28;20077;-74
2021/08/18 06:53:55;;;;;;;17.30;10.43;;;;;;;;;;5110851;28;20472;-73
2021/08/18 06:56:21;;;;;;;16.70;10.38;;;;;;;;;;5112679;28;20024;-73
2021/08/18 06:58:47;;;;;;;17.17;9.38;;;;;;;;;;5113036;28;20024;-73
2021/08/18 07:01:13;;;;;;;20.83;10.60;;;;;;;;;;5112668;28;20028;-72
2021/08/18 07:03:39;;;;;;;17.08;9.65;;;;;;;;;;5109803;28;20041;-72
2021/08/18 07:06:05;;;;;;;16.80;10.48;;;;;;;;;;5112801;28;20039;-72
2021/08/18 07:08:31;;;;;;;20.33;10.10;;;;;;;;;;5112642;28;20114;-73
2021/08/18 07:10:57;;;;;;;18.38;9.35;;;;;;;;;;5112870;28;20058;-72
2021/08/18 07:13:24;;;;;;;16.25;9.82;;;;;;;;;;5109723;28;20027;-72
2021/08/18 07:15:50;;;;;;;18.90;9.60;;;;;;;;;;5112581;28;20051;-72
2021/08/18 07:18:16;;;;;;;16.02;9.13;;;;;;;;;;5112465;28;20435;-72
2021/08/18 07:20:42;;;;;;;16.08;8.00;;;;;;;;;;5112469;28;20397;-73
2021/08/18 07:23:08;;;;;;;16.50;8.05;;;;;;;;;;5109415;28;20370;-73
2021/08/18 07:25:34;;;;;;;17.27;8.18;;;;;;;;;;5112167;28;20777;-72
2021/08/18 07:28:00;;;;;;;14.18;7.95;;;;;;;;;;5094220;28;20020;-73
2021/08/18 07:30:26;;;;;;;14.85;7.85;;;;;;;;;;5098177;28;20032;-74
2021/08/18 07:32:52;;;;;;;20.27;8.32;;;;;;;;;;5108975;28;20100;-73
2021/08/18 07:35:18;;;;;;;16.13;7.35;;;;;;;;;;5111995;28;20063;-71
2021/08/18 07:37:44;;;;;;;16.35;7.40;;;;;;;;;;5112188;28;20032;-72
2021/08/18 07:40:10;;;;;;;12.23;6.55;;;;;;;;;;5093797;28;20068;-73
2021/08/18 07:42:36;;;;;;;11.00;6.63;;;;;;;;;;5107619;28;20023;-72
2021/08/18 07:45:03;;;;;;;12.63;5.72;;;;;;;;;;5101178;28;20034;-71
2021/08/18 07:47:29;;;;;;;14.18;6.70;;;;;;;;;;5112033;28;20024;-74
2021/08/18 07:49:55;;;;;;;12.77;6.63;;;;;;;;;;5111689;28;20077;-72
2021/08/18 07:52:21;;;;;;;11.73;6.47;;;;;;;;;;5108925;28;20019;-73
2021/08/18 07:54:48;;;;;;;14.40;6.30;;;;;;;;;;5111362;28;20110;-74
2021/08/18 07:57:14;;;;;;;17.95;8.88;;;;;;;;;;5111961;28;20103;-73
2021/08/18 07:59:40;;;;;;;16.48;6.93;;;;;;;;;;5111700;28;20027;-73
2021/08/18 08:02:06;;;;;;;18.48;7.63;;;;;;;;;;5090697;28;20051;-73
2021/08/18 08:04:32;;;;;;;17.25;6.80;;;;;;;;;;5111396;28;20016;-73
2021/08/18 08:06:58;;;;;;;15.07;6.05;;;;;;;;;;5111779;28;20024;-74
2021/08/18 08:09:24;;;;;;;13.77;6.28;;;;;;;;;;5111476;28;20051;-73
2021/08/18 08:11:50;;;;;;;12.02;6.43;;;;;;;;;;5090415;28;20513;-73
2021/08/18 08:14:16;;;;;;;17.85;7.50;;;;;;;;;;5092901;28;20036;-71
2021/08/18 08:16:42;;;;;;;18.48;7.35;;;;;;;;;;5093870;28;20016;-73
2021/08/18 08:19:08;;;;;;;11.90;6.65;;;;;;;;;;5090929;28;20028;-72
2021/08/18 08:21:35;;;;;;;18.63;6.90;;;;;;;;;;5088953;28;20084;-72
2021/08/18 08:24:01;;;;;;;14.23;6.85;;;;;;;;;;5090730;28;20020;-73
2021/08/18 08:26:27;;;;;;;16.30;6.90;;;;;;;;;;5103114;28;20034;-73
2021/08/18 08:28:53;;;;;;;13.52;5.90;;;;;;;;;;5106582;28;20050;-72
2021/08/18 08:31:19;;;;;;;9.70;5.95;;;;;;;;;;5101562;28;20046;-74
2021/08/18 08:33:46;;;;;;;13.25;7.05;;;;;;;;;;5109014;28;20035;-75
2021/08/18 08:36:12;;;;;;;12.55;6.57;;;;;;;;;;5111068;28;20048;-75
2021/08/18 08:38:38;;;;;;;15.05;6.80;;;;;;;;;;5111321;28;20020;-74
2021/08/18 08:41:06;;;;;;;10.63;6.25;;;;;;;;;;5092889;28;20016;-74
2021/08/18 08:43:32;;;;;;;13.35;5.45;;;;;;;;;;5108194;28;20020;-74
2021/08/18 08:45:58;;;;;;;12.25;5.70;;;;;;;;;;5111246;28;20271;-70
2021/08/18 08:48:24;;;;;;;11.95;5.20;;;;;;;;;;5111330;28;20024;-74
2021/08/18 08:50:51;;;;;;;14.20;5.30;;;;;;;;;;5110898;28;20023;-73
2021/08/18 08:53:17;;;;;;;10.02;5.38;;;;;;;;;;5107956;28;20024;-74
2021/08/18 08:55:44;;;;;;;12.35;5.20;;;;;;;;;;5091937;28;20388;-74
2021/08/18 08:58:10;;;;;;;11.48;5.88;;;;;;;;;;5092777;28;20031;-74
2021/08/18 09:00:36;;;;;;;11.85;5.70;;;;;;;;;;5111241;28;20023;-74
2021/08/18 09:03:28;;;;;;;9.27;5.22;;;;;;;;;;5089613;28;20023;-73
2021/08/18 09:05:58;;;;;;;7.93;4.82;;;;;;;;;;5070882;28;20032;-75
2021/08/18 09:08:24;;;;;;;14.48;5.57;;;;;;;;;;5090726;28;20023;-74
2021/08/18 09:11:05;;;;;;;11.23;5.75;;;;;;;;;;5092246;28;20027;-74
2021/08/18 09:13:45;;;;;;;8.68;4.88;;;;;;;;;;5091461;28;20250;-73
2021/08/18 09:16:12;;;;;;;13.90;5.85;;;;;;;;;;5076493;28;20020;-74
2021/08/18 09:18:48;;;;;;;10.98;5.10;;;;;;;;;;5094409;28;20032;-74
2021/08/18 09:21:30;;;;;;;10.13;5.22;;;;;;;;;;5076239;28;20366;-75
2021/08/18 09:24:16;;;;;;;12.35;5.70;;;;;;;;;;5075174;28;20115;-74
2021/08/18 09:26:46;;;;;;;9.25;5.15;;;;;;;;;;5108840;28;20012;-74
2021/08/18 09:29:12;;;;;;;14.35;5.50;;;;;;;;;;5107141;28;20023;-75
2021/08/18 09:31:38;;;;;;;20.00;5.00;;;;;;;;;;5105469;28;20355;-75
2021/08/18 09:34:10;;;;;;;13.23;5.07;;;;;;;;;;5114419;28;20043;-75
2021/08/18 09:36:36;;;;;;;12.25;4.93;;;;;;;;;;5114107;28;20130;-73
2021/08/18 09:39:21;;;;;;;16.00;5.88;;;;;;;;;;5096087;28;20030;-71
2021/08/18 09:41:48;;;;;;;12.85;4.28;;;;;;;;;;5111533;28;20372;-73
2021/08/18 09:44:14;;;;;;;11.57;5.50;;;;;;;;;;5113867;28;20028;-75
2021/08/18 09:46:40;;;;;;;12.40;5.38;;;;;;;;;;5114493;28;20020;-74
2021/08/18 09:49:13;;;;;;;9.68;4.40;;;;;;;;;;5114093;28;20053;-75
2021/08/18 09:51:43;;;;;;;11.90;4.30;;;;;;;;;;5111056;28;20096;-74
2021/08/18 09:54:16;;;;;;;11.35;5.38;;;;;;;;;;5105020;28;20016;-74
2021/08/18 09:56:47;;;;;;;10.63;5.00;;;;;;;;;;5113301;28;20027;-73
2021/08/18 09:59:13;;;;;;;15.27;4.95;;;;;;;;;;5095938;28;20020;-72
2021/08/18 10:01:40;;;;;;;12.55;5.72;;;;;;;;;;5111117;28;20059;-74
2021/08/18 10:04:06;;;;;;;10.30;5.80;;;;;;;;;;5111415;28;20016;-74
2021/08/18 10:06:33;;;;;;;12.05;5.93;;;;;;;;;;5093482;28;20020;-73
2021/08/18 10:08:59;;;;;;;12.02;6.03;;;;;;;;;;5093471;28;20028;-73
2021/08/18 10:11:26;;;;;;;8.65;5.10;;;;;;;;;;5092019;28;20032;-73
2021/08/18 10:13:53;;;;;;;8.20;4.78;;;;;;;;;;5091846;28;20028;-73
2021/08/18 10:16:19;;;;;;;10.77;5.60;;;;;;;;;;5092061;28;20036;-72
2021/08/18 10:18:47;;;;;;;9.45;5.40;;;;;;;;;;5093368;28;20024;-75
2021/08/18 10:21:17;;;;;;;13.73;5.32;;;;;;;;;;5092888;28;20470;-73
2021/08/18 10:23:57;;;;;;;11.70;5.07;;;;;;;;;;5090994;28;20012;-74
2021/08/18 10:26:35;;;;;;;8.23;4.63;;;;;;;;;;5104804;28;20107;-74
2021/08/18 10:29:01;;;;;;;9.55;4.47;;;;;;;;;;5091511;28;20111;-71
2021/08/18 10:31:46;;;;;;;11.57;5.28;;;;;;;;;;5093447;28;20092;-73
2021/08/18 10:34:22;;;;;;;11.93;4.90;;;;;;;;;;5113002;27;20051;-73
2021/08/18 10:36:57;;;;;;;9.23;4.78;;;;;;;;;;5113413;28;20039;-73
2021/08/18 10:39:23;;;;;;;10.10;4.78;;;;;;;;;;5112973;28;20115;-74
2021/08/18 10:42:01;;;;;;;15.05;5.30;;;;;;;;;;5110369;28;20007;-74
2021/08/18 10:44:41;;;;;;;9.07;4.13;;;;;;;;;;5100683;28;20027;-74
2021/08/18 10:47:16;;;;;;;8.18;3.70;;;;;;;;;;5113386;28;20106;-73
2021/08/18 10:49:43;;;;;;;9.13;4.15;;;;;;;;;;5112990;28;20019;-71
2021/08/18 10:52:10;;;;;;;8.82;3.90;;;;;;;;;;5110043;28;20096;-74
2021/08/18 10:54:39;;;;;;;7.93;4.03;;;;;;;;;;5112502;28;20035;-74
2021/08/18 10:57:25;;;;;;;8.85;3.60;;;;;;;;;;5094700;28;20080;-74
2021/08/18 10:59:52;;;;;;;9.60;3.47;;;;;;;;;;5094450;28;20020;-74
2021/08/18 11:02:37;;;;;;;12.35;3.05;;;;;;;;;;5091711;28;20023;-72
2021/08/18 11:05:13;;;;;;;7.90;2.95;;;;;;;;;;5090620;28;20516;-73
2021/08/18 11:07:58;;;;;;;6.72;2.45;;;;;;;;;;5092465;28;20024;-75
2021/08/18 11:10:24;;;;;;;6.15;2.40;;;;;;;;;;5092384;28;20032;-75
2021/08/18 11:12:50;;;;;;;6.45;2.65;;;;;;;;;;5088085;28;20032;-73
2021/08/18 11:15:19;;;;;;;6.65;2.80;;;;;;;;;;5091026;28;20073;-76
2021/08/18 11:17:54;;;;;;;7.60;2.50;;;;;;;;;;5090970;28;20083;-76
2021/08/18 11:20:21;;;;;;;6.78;2.90;;;;;;;;;;5090649;28;20024;-74
2021/08/18 11:22:53;;;;;;;7.13;2.30;;;;;;;;;;5089389;28;20020;-74
2021/08/18 11:25:19;;;;;;;6.80;2.80;;;;;;;;;;5091566;28;20020;-72
2021/08/18 11:27:53;;;;;;;7.97;2.75;;;;;;;;;;5092207;28;20165;-74
2021/08/18 11:30:30;;;;;;;6.65;2.47;;;;;;;;;;5105718;28;20561;-73
2021/08/18 11:32:56;;;;;;;7.38;2.70;;;;;;;;;;5097374;28;20022;-72
2021/08/18 11:35:32;;;;;;;8.30;2.80;;;;;;;;;;5111731;28;20044;-73
2021/08/18 11:38:08;;;;;;;9.85;3.28;;;;;;;;;;5112198;28;20039;-73
2021/08/18 11:40:34;;;;;;;7.60;3.15;;;;;;;;;;5112032;28;20452;-74
2021/08/18 11:43:01;;;;;;;9.98;2.88;;;;;;;;;;5109012;28;20028;-74
2021/08/18 11:45:27;;;;;;;7.40;2.88;;;;;;;;;;5079526;28;20039;-73
2021/08/18 11:48:10;;;;;;;5.30;2.28;;;;;;;;;;5075087;28;20050;-72
2021/08/18 11:50:40;;;;;;;9.77;2.80;;;;;;;;;;5111623;28;20024;-72
2021/08/18 11:53:07;;;;;;;6.70;2.95;;;;;;;;;;5107101;28;20039;-73
2021/08/18 11:55:34;;;;;;;6.85;2.25;;;;;;;;;;5111463;28;20088;-72
2021/08/18 11:58:01;;;;;;;8.73;3.00;;;;;;;;;;5111878;28;20084;-73
2021/08/18 12:00:27;;;;;;;7.80;3.25;;;;;;;;;;5111829;28;20027;-72
2021/08/18 12:02:53;;;;;;;10.85;2.80;;;;;;;;;;5090545;28;20019;-74
2021/08/18 12:05:27;;;;;;;7.10;2.95;;;;;;;;;;5098751;28;20024;-75
2021/08/18 12:08:05;;;;;;;6.82;2.60;;;;;;;;;;5091397;28;20038;-73
2021/08/18 12:10:37;;;;;;;6.47;3.25;;;;;;;;;;5091093;28;20020;-73
2021/08/18 12:13:04;;;;;;;9.93;2.83;;;;;;;;;;5088570;28;20020;-74
2021/08/18 12:15:33;;;;;;;7.38;2.40;;;;;;;;;;5089506;28;20024;-72
2021/08/18 12:17:59;;;;;;;8.88;2.85;;;;;;;;;;5090084;28;20028;-74
2021/08/18 12:20:30;;;;;;;6.85;2.38;;;;;;;;;;5091111;28;20031;-73
2021/08/18 12:23:00;;;;;;;6.67;2.47;;;;;;;;;;5088380;28;20173;-74
2021/08/18 12:25:36;;;;;;;7.15;2.65;;;;;;;;;;5091852;28;20256;-75
2021/08/18 12:28:18;;;;;;;5.47;2.47;;;;;;;;;;5111508;28;20047;-73
2021/08/18 12:31:00;;;;;;;4.97;2.22;;;;;;;;;;5097760;28;20020;-74
2021/08/18 12:33:27;;;;;;;5.43;2.45;;;;;;;;;;5108448;28;20021;-75
2021/08/18 12:36:11;;;;;;;8.00;3.28;;;;;;;;;;5109448;28;20516;-74
2021/08/18 12:38:37;;;;;;;6.03;2.47;;;;;;;;;;5111323;28;21990;-75
2021/08/18 12:41:07;;;;;;;5.65;2.45;;;;;;;;;;5111308;28;20028;-74
2021/08/18 12:43:34;;;;;;;9.85;2.88;;;;;;;;;;5108353;28;20020;-74
2021/08/18 12:46:00;;;;;;;6.47;2.90;;;;;;;;;;5112923;28;20072;-72
2021/08/18 12:48:27;;;;;;;7.15;3.28;;;;;;;;;;5115549;28;20036;-72
2021/08/18 12:50:53;;;;;;;7.45;3.60;;;;;;;;;;5115137;28;20272;-70
2021/08/18 12:53:19;;;;;;;8.60;3.60;;;;;;;;;;5112812;28;20015;-73
2021/08/18 12:55:48;;;;;;;6.57;3.88;;;;;;;;;;5105791;28;20027;-71
2021/08/18 12:58:17;;;;;;;10.07;3.92;;;;;;;;;;5115310;28;20485;-72
2021/08/18 13:00:43;;;;;;;9.25;4.97;;;;;;;;;;5115308;28;20079;-71
2021/08/18 13:03:09;;;;;;;9.45;4.45;;;;;;;;;;5112381;28;20020;-75
2021/08/18 13:05:35;;;;;;;9.32;3.90;;;;;;;;;;5114886;28;20023;-75
2021/08/18 13:08:01;;;;;;;10.65;4.50;;;;;;;;;;5115053;28;20016;-73
2021/08/18 13:10:27;;;;;;;8.52;4.57;;;;;;;;;;5114894;28;20027;-73
2021/08/18 13:12:53;;;;;;;14.25;4.75;;;;;;;;;;5112291;28;20031;-71
2021/08/18 13:15:19;;;;;;;10.75;4.80;;;;;;;;;;5096102;28;20032;-74
2021/08/18 13:17:45;;;;;;;7.70;3.90;;;;;;;;;;5115413;28;20055;-73
2021/08/18 13:20:12;;;;;;;9.65;4.25;;;;;;;;;;5114695;28;20072;-73
2021/08/18 13:22:38;;;;;;;8.85;4.18;;;;;;;;;;5111978;28;20031;-72
2021/08/18 13:25:04;;;;;;;9.15;3.97;;;;;;;;;;5113812;28;20019;-73
2021/08/18 13:27:31;;;;;;;10.50;4.18;;;;;;;;;;5094397;28;20043;-72
2021/08/18 13:29:57;;;;;;;9.27;4.32;;;;;;;;;;5108136;28;20445;-71
2021/08/18 13:32:23;;;;;;;12.02;4.15;;;;;;;;;;5102076;28;20032;-71
2021/08/18 13:34:49;;;;;;;9.43;4.75;;;;;;;;;;5114073;28;20027;-72
2021/08/18 13:37:16;;;;;;;8.18;4.10;;;;;;;;;;5114408;28;20051;-71
2021/08/18 13:39:42;;;;;;;8.13;3.97;;;;;;;;;;5114351;28;20161;-74
2021/08/18 13:42:08;;;;;;;8.77;3.92;;;;;;;;;;5111746;28;20457;-72
2021/08/18 13:44:35;;;;;;;9.98;4.28;;;;;;;;;;5101748;28;20107;-72
2021/08/18 13:47:01;;;;;;;9.27;4.70;;;;;;;;;;5112795;28;20031;-71
2021/08/18 13:49:27;;;;;;;8.77;4.13;;;;;;;;;;5114009;28;20493;-72
2021/08/18 13:51:53;;;;;;;9.40;3.95;;;;;;;;;;5111248;28;20244;-73
2021/08/18 13:54:19;;;;;;;8.07;3.50;;;;;;;;;;5113381;28;20019;-70
2021/08/18 13:56:45;;;;;;;9.20;3.83;;;;;;;;;;5091532;28;20558;-74
2021/08/18 13:59:11;;;;;;;7.43;3.00;;;;;;;;;;5093793;28;20111;-74
2021/08/18 14:01:37;;;;;;;6.95;3.33;;;;;;;;;;5090931;28;20026;-71
2021/08/18 14:04:03;;;;;;;8.85;3.88;;;;;;;;;;5093653;28;20052;-72
2021/08/18 14:06:30;;;;;;;9.50;4.95;;;;;;;;;;5093505;28;20020;-69
2021/08/18 14:08:56;;;;;;;9.30;4.65;;;;;;;;;;5093535;28;20024;-75
2021/08/18 14:11:22;;;;;;;10.38;4.60;;;;;;;;;;5092442;28;20552;-73
2021/08/18 14:13:48;;;;;;;11.98;5.50;;;;;;;;;;5091631;28;20024;-72
2021/08/18 14:16:14;;;;;;;8.60;4.22;;;;;;;;;;5093280;28;20494;-70
2021/08/18 14:18:41;;;;;;;9.90;4.65;;;;;;;;;;5093400;28;20107;-71
2021/08/18 14:21:08;;;;;;;10.90;5.30;;;;;;;;;;5093182;28;20016;-71
2021/08/18 14:23:35;;;;;;;11.18;4.78;;;;;;;;;;5089106;28;20440;-72
2021/08/18 14:26:03;;;;;;;11.15;6.28;;;;;;;;;;5092725;28;20024;-72
2021/08/18 14:28:29;;;;;;;16.70;7.22;;;;;;;;;;5094722;28;20554;-72